Time;durP1;ratioP1;P1;durP2;ratioP2;P2;SDS_P1;SDS_P2;PMS_P1;PMS_P2;Temp;Humidity;BMP_temperature;BMP_pressure;BME280_temperature;BME280_humidity;BME280_pressure;Samples;Min_cycle;Max_cycle;Signal;HPM_P1;HPM_P2
2022/06/25 00:01:23;;;;;;;10.07;8.73;;;17.10;99.90;;;;;;5078513;27;20043;-86
2022/06/25 00:03:49;;;;;;;10.68;9.50;;;17.00;99.90;;;;;;5095233;27;20042;-86
2022/06/25 00:06:18;;;;;;;11.80;10.60;;;17.00;99.90;;;;;;5092092;27;20104;-86
2022/06/25 00:08:45;;;;;;;12.02;10.05;;;17.00;99.90;;;;;;5094925;27;20167;-85
2022/06/25 00:13:56;;;;;;;11.37;9.60;;;17.00;99.90;;;;;;5105667;28;20169;-85
2022/06/25 00:16:23;;;;;;;12.48;11.00;;;17.00;99.90;;;;;;5061485;27;20450;-86
2022/06/25 00:18:49;;;;;;;12.02;10.93;;;17.00;99.90;;;;;;5079057;27;20480;-86
2022/06/25 00:21:15;;;;;;;13.27;11.88;;;16.90;99.90;;;;;;5093878;27;20074;-86
2022/06/25 00:23:40;;;;;;;13.60;11.65;;;16.90;99.90;;;;;;5088283;27;20566;-87
2022/06/25 00:26:06;;;;;;;13.63;11.23;;;16.90;99.90;;;;;;5094748;27;20047;-86
2022/06/25 00:28:32;;;;;;;12.43;11.13;;;16.90;99.90;;;;;;5103274;28;20092;-86
2022/06/25 00:30:58;;;;;;;13.90;11.80;;;16.90;99.90;;;;;;5089927;28;20059;-86
2022/06/25 00:33:24;;;;;;;12.68;11.38;;;16.70;99.90;;;;;;5110252;27;20043;-85
2022/06/25 00:35:49;;;;;;;12.30;11.00;;;16.80;99.90;;;;;;5102341;27;20094;-86
2022/06/25 00:38:15;;;;;;;13.30;11.88;;;16.80;99.90;;;;;;5098515;27;20047;-86
2022/06/25 00:40:41;;;;;;;12.80;11.15;;;16.20;99.90;;;;;;5087807;28;20129;-86
2022/06/25 00:43:09;;;;;;;16.38;13.65;;;16.80;99.90;;;;;;5095762;28;20051;-86
2022/06/25 00:45:35;;;;;;;14.55;11.70;;;16.20;99.90;;;;;;5094696;28;20039;-85
2022/06/25 00:48:04;;;;;;;13.13;11.50;;;16.70;99.90;;;;;;5110204;28;20210;-85
2022/06/25 00:50:30;;;;;;;15.13;13.15;;;16.80;99.90;;;;;;5090202;28;20146;-86
2022/06/25 00:52:58;;;;;;;14.05;12.07;;;16.80;99.90;;;;;;5102165;28;20057;-85
2022/06/25 00:55:37;;;;;;;13.77;12.05;;;16.80;99.90;;;;;;5101777;28;20142;-85
2022/06/25 00:58:08;;;;;;;14.10;12.70;;;16.80;99.90;;;;;;5095196;28;20130;-85
2022/06/25 01:00:34;;;;;;;15.40;13.75;;;16.80;99.90;;;;;;5095446;28;20068;-85
2022/06/25 01:02:59;;;;;;;14.27;12.52;;;16.80;99.90;;;;;;5100916;28;20043;-86
2022/06/25 01:05:25;;;;;;;14.48;12.60;;;16.80;99.90;;;;;;5092978;28;20048;-86
2022/06/25 01:07:51;;;;;;;13.70;12.00;;;16.80;99.90;;;;;;5094693;28;20126;-85
2022/06/25 01:10:17;;;;;;;14.20;12.75;;;16.80;99.90;;;;;;5092643;28;20096;-86
2022/06/25 01:12:44;;;;;;;15.18;12.90;;;16.70;99.90;;;;;;5093381;28;20051;-86
2022/06/25 01:15:18;;;;;;;13.75;12.30;;;16.70;99.90;;;;;;5087691;28;20050;-87
2022/06/25 01:18:02;;;;;;;16.00;12.98;;;16.70;99.90;;;;;;5086361;28;20051;-87
2022/06/25 01:20:30;;;;;;;14.20;11.90;;;16.70;99.90;;;;;;5076402;28;20481;-85
2022/06/25 01:22:56;;;;;;;16.13;13.07;;;16.70;99.90;;;;;;5077068;28;20111;-86
2022/06/25 01:25:22;;;;;;;13.10;11.68;;;16.60;99.90;;;;;;5090855;28;20115;-85
2022/06/25 01:27:48;;;;;;;14.65;13.15;;;16.40;99.90;;;;;;5092150;28;20090;-86
2022/06/25 01:30:17;;;;;;;16.02;13.50;;;16.60;99.90;;;;;;5088958;28;20078;-86
2022/06/25 01:32:43;;;;;;;15.98;12.95;;;16.60;99.90;;;;;;5102143;28;20050;-86
2022/06/25 01:35:09;;;;;;;16.08;14.15;;;16.60;99.90;;;;;;5086698;28;20035;-86
2022/06/25 01:37:39;;;;;;;15.77;13.75;;;16.60;99.90;;;;;;5094403;28;20047;-86
2022/06/25 01:40:05;;;;;;;14.70;13.10;;;16.60;99.90;;;;;;5099239;28;20043;-86
2022/06/25 01:45:15;;;;;;;13.68;12.30;;;16.00;99.90;;;;;;5102704;28;20054;-85
2022/06/25 01:47:44;;;;;;;16.17;13.35;;;16.60;99.90;;;;;;5094217;28;20070;-86
2022/06/25 01:50:11;;;;;;;13.68;11.80;;;16.50;99.90;;;;;;5086426;27;20041;-86
2022/06/25 01:52:37;;;;;;;14.20;12.80;;;16.50;99.90;;;;;;5072474;27;20043;-86
2022/06/25 01:55:03;;;;;;;13.30;11.90;;;16.50;99.90;;;;;;5098073;27;20412;-86
2022/06/25 01:57:29;;;;;;;15.20;13.60;;;16.50;99.90;;;;;;5117475;27;20496;-86
2022/06/25 01:59:58;;;;;;;16.92;14.23;;;16.50;99.90;;;;;;5091949;27;20046;-86
2022/06/25 02:02:24;;;;;;;14.98;13.48;;;16.50;99.90;;;;;;5096683;27;20442;-86
2022/06/25 02:04:50;;;;;;;17.88;13.45;;;16.50;99.90;;;;;;5090045;27;20570;-86
2022/06/25 02:07:16;;;;;;;13.82;12.40;;;16.50;99.90;;;;;;5092515;27;20063;-86
2022/06/25 02:09:41;;;;;;;16.30;14.57;;;16.50;99.90;;;;;;5079855;27;20043;-86
2022/06/25 02:12:08;;;;;;;18.30;14.90;;;16.30;99.90;;;;;;5110049;27;20043;-86
2022/06/25 02:14:33;;;;;;;15.20;13.60;;;16.50;99.90;;;;;;5117344;27;20540;-86
2022/06/25 02:17:00;;;;;;;14.75;13.20;;;16.40;99.90;;;;;;5106056;27;20084;-86
2022/06/25 02:19:25;;;;;;;15.00;13.40;;;16.40;99.90;;;;;;5091974;27;20059;-86
2022/06/25 02:21:51;;;;;;;15.30;13.20;;;16.40;99.90;;;;;;5073338;27;20062;-85
2022/06/25 02:24:17;;;;;;;13.60;12.27;;;16.40;99.90;;;;;;5087853;27;20078;-84
2022/06/25 02:26:43;;;;;;;15.18;13.57;;;16.40;99.90;;;;;;5087888;27;20051;-85
2022/06/25 02:29:09;;;;;;;16.90;14.65;;;16.30;99.90;;;;;;5078759;27;20046;-86
2022/06/25 02:31:34;;;;;;;15.48;13.85;;;16.30;99.90;;;;;;5095538;27;20047;-85
2022/06/25 02:34:00;;;;;;;14.60;13.10;;;16.40;99.90;;;;;;5078352;27;20050;-85
2022/06/25 02:36:26;;;;;;;18.30;15.05;;;16.30;99.90;;;;;;5088397;27;20809;-85
2022/06/25 02:38:52;;;;;;;13.98;12.48;;;16.30;99.90;;;;;;5095718;27;20051;-85
2022/06/25 02:41:18;;;;;;;14.75;13.20;;;15.60;99.90;;;;;;5090255;27;20403;-86
2022/06/25 02:43:44;;;;;;;16.13;14.43;;;16.20;99.90;;;;;;5073482;27;20043;-85
2022/06/25 02:46:10;;;;;;;15.85;14.25;;;16.20;99.90;;;;;;5091723;27;20541;-85
2022/06/25 02:48:36;;;;;;;16.80;15.10;;;16.20;99.90;;;;;;5091610;27;20043;-85
2022/06/25 02:51:08;;;;;;;17.30;15.32;;;16.20;99.90;;;;;;5097240;27;20043;-85
2022/06/25 02:53:33;;;;;;;16.83;15.02;;;16.20;99.90;;;;;;5094616;27;20074;-85
2022/06/25 02:58:54;;;;;;;17.80;16.10;;;16.20;99.90;;;;;;5100230;28;20051;-85
2022/06/25 03:01:21;;;;;;;18.70;15.77;;;16.20;99.90;;;;;;5067418;28;20044;-85
2022/06/25 03:03:46;;;;;;;15.30;13.70;;;16.20;99.90;;;;;;5083551;28;20545;-84
2022/06/25 03:06:20;;;;;;;16.77;14.95;;;16.10;99.90;;;;;;5106407;28;20131;-84
2022/06/25 03:08:57;;;;;;;;;;;;;;;;;;;;;
2022/06/25 03:11:23;;;;;;;18.23;16.33;;;16.10;99.90;;;;;;5102422;28;20059;-85
2022/06/25 03:13:52;;;;;;;17.02;15.32;;;16.10;99.90;;;;;;5100884;28;20069;-85
2022/06/25 03:16:17;;;;;;;18.88;16.83;;;16.10;99.90;;;;;;5092904;28;20534;-85
2022/06/25 03:18:43;;;;;;;17.77;15.82;;;16.10;99.90;;;;;;5087625;28;20047;-85
2022/06/25 03:21:12;;;;;;;16.75;15.10;;;16.10;99.90;;;;;;5099784;28;20039;-85
2022/06/25 03:23:38;;;;;;;17.02;15.35;;;16.00;99.90;;;;;;5090568;28;20146;-86
2022/06/25 03:26:03;;;;;;;17.15;14.88;;;16.00;99.90;;;;;;5072898;28;20540;-85
2022/06/25 03:28:29;;;;;;;16.38;14.68;;;16.10;99.90;;;;;;5071043;28;20080;-85
2022/06/25 03:30:55;;;;;;;18.02;16.25;;;16.10;99.90;;;;;;5083167;28;20052;-85
2022/06/25 03:33:21;;;;;;;19.30;15.38;;;16.00;99.90;;;;;;5100889;28;20122;-85
2022/06/25 03:35:47;;;;;;;17.38;15.57;;;16.10;99.90;;;;;;5086500;28;20470;-84
2022/06/25 03:38:12;;;;;;;16.85;15.10;;;16.10;99.90;;;;;;5104574;28;20047;-85
2022/06/25 03:40:38;;;;;;;16.98;15.25;;;16.00;99.90;;;;;;5084217;28;20486;-84
2022/06/25 03:43:04;;;;;;;17.98;16.00;;;16.00;99.90;;;;;;5103855;28;20054;-85
2022/06/25 03:45:35;;;;;;;17.10;14.48;;;16.10;99.90;;;;;;5085834;28;20036;-85
2022/06/25 03:48:32;;;;;;;16.38;14.60;;;16.10;99.90;;;;;;5096959;28;20099;-86
2022/06/25 03:50:58;;;;;;;16.27;14.20;;;16.10;99.90;;;;;;5078113;28;20048;-85
2022/06/25 03:53:24;;;;;;;13.13;11.82;;;16.10;99.90;;;;;;5085935;28;20044;-85
2022/06/25 03:55:50;;;;;;;16.35;14.75;;;16.20;99.90;;;;;;5074264;28;20055;-85
2022/06/25 03:58:16;;;;;;;14.90;13.40;;;16.10;99.90;;;;;;5091333;28;20055;-85
2022/06/25 04:00:42;;;;;;;14.45;12.73;;;16.20;99.90;;;;;;5083933;28;20048;-85
2022/06/25 04:03:08;;;;;;;15.07;13.55;;;16.20;99.90;;;;;;5085882;28;20055;-85
2022/06/25 04:05:34;;;;;;;15.75;14.23;;;16.30;99.90;;;;;;5065953;28;20081;-84
2022/06/25 04:07:59;;;;;;;15.07;13.52;;;16.30;99.90;;;;;;5082769;28;20048;-84
2022/06/25 04:10:28;;;;;;;17.85;14.10;;;16.40;99.90;;;;;;5084390;28;20052;-85
2022/06/25 04:12:56;;;;;;;15.10;12.98;;;16.50;99.90;;;;;;5083993;28;20435;-85
2022/06/25 04:15:22;;;;;;;15.35;13.82;;;16.30;99.90;;;;;;5085356;28;20040;-85
2022/06/25 04:17:48;;;;;;;13.40;11.98;;;16.60;99.90;;;;;;5075214;28;20058;-85
2022/06/25 04:20:14;;;;;;;12.90;11.70;;;16.60;99.90;;;;;;5089335;28;20055;-85
2022/06/25 04:22:40;;;;;;;13.65;12.35;;;16.70;99.90;;;;;;5090186;28;20055;-85
2022/06/25 04:25:06;;;;;;;13.75;12.32;;;16.70;99.90;;;;;;5073376;28;20040;-85
2022/06/25 04:30:16;;;;;;;11.55;10.48;;;16.80;99.90;;;;;;5087310;28;20077;-84
2022/06/25 04:32:45;;;;;;;11.70;10.50;;;16.90;99.90;;;;;;5092081;28;20463;-84
2022/06/25 04:35:11;;;;;;;11.80;10.63;;;16.90;99.90;;;;;;5104652;28;20052;-85
2022/06/25 04:37:37;;;;;;;12.98;11.13;;;17.00;99.90;;;;;;5087880;28;20089;-84
2022/06/25 04:40:03;;;;;;;11.93;10.73;;;17.10;99.90;;;;;;5091321;28;20086;-85
2022/06/25 04:42:29;;;;;;;10.55;9.52;;;17.10;99.90;;;;;;5082400;28;20057;-85
2022/06/25 04:44:55;;;;;;;12.80;11.55;;;17.20;99.90;;;;;;5083301;28;20119;-85
2022/06/25 04:47:23;;;;;;;11.98;9.75;;;17.30;99.90;;;;;;5073281;28;20047;-85
2022/06/25 04:49:50;;;;;;;11.60;10.50;;;16.90;99.90;;;;;;5091571;28;20085;-85
2022/06/25 04:52:16;;;;;;;10.82;9.77;;;17.40;99.90;;;;;;5083488;28;20074;-85
2022/06/25 04:54:42;;;;;;;10.18;9.25;;;17.00;99.90;;;;;;5102561;28;20635;-84
2022/06/25 04:57:08;;;;;;;10.80;9.80;;;17.60;99.90;;;;;;5085575;28;20071;-84
2022/06/25 04:59:34;;;;;;;10.68;9.60;;;17.70;99.90;;;;;;5098062;28;20063;-85
2022/06/25 05:01:59;;;;;;;12.50;9.88;;;17.70;99.90;;;;;;5093280;28;20055;-85
2022/06/25 05:04:28;;;;;;;12.25;10.43;;;17.80;99.90;;;;;;5094512;28;20052;-85
2022/06/25 05:06:54;;;;;;;14.57;10.48;;;18.10;99.90;;;;;;5092131;28;20048;-86
2022/06/25 05:09:25;;;;;;;11.60;10.48;;;18.00;99.90;;;;;;5086450;28;20044;-85
2022/06/25 05:11:51;;;;;;;11.50;8.60;;;18.10;99.90;;;;;;5070631;28;20112;-84
2022/06/25 05:14:17;;;;;;;11.13;9.30;;;18.20;99.90;;;;;;5082917;28;20477;-85
2022/06/25 05:16:45;;;;;;;10.88;9.40;;;18.20;99.90;;;;;;5087568;28;20476;-85
2022/06/25 05:19:11;;;;;;;11.27;9.38;;;18.00;99.90;;;;;;5101226;28;20060;-85
2022/06/25 05:21:38;;;;;;;10.75;9.50;;;18.40;99.90;;;;;;5070659;28;20048;-85
2022/06/25 05:24:05;;;;;;;11.18;9.60;;;18.50;99.90;;;;;;5093252;28;20052;-85
2022/06/25 05:26:31;;;;;;;9.90;8.90;;;18.60;99.90;;;;;;5126101;28;20051;-85
2022/06/25 05:29:00;;;;;;;9.70;8.43;;;18.60;99.90;;;;;;5114371;28;20048;-85
2022/06/25 05:31:26;;;;;;;10.48;9.23;;;18.70;99.90;;;;;;5100411;28;20043;-84
2022/06/25 05:33:52;;;;;;;9.57;8.25;;;18.90;99.90;;;;;;5110563;28;20040;-85
2022/06/25 05:36:18;;;;;;;10.35;7.40;;;19.00;99.90;;;;;;5083820;28;20548;-85
2022/06/25 05:38:43;;;;;;;10.60;7.03;;;19.10;99.90;;;;;;5073942;28;20477;-86
2022/06/25 05:41:09;;;;;;;8.05;6.45;;;19.20;99.90;;;;;;5082085;28;20055;-85
2022/06/25 05:43:36;;;;;;;10.88;6.85;;;19.40;99.90;;;;;;5095843;28;20870;-85
2022/06/25 05:46:02;;;;;;;7.00;5.45;;;19.60;99.90;;;;;;5105228;28;20562;-85
2022/06/25 05:48:29;;;;;;;8.82;5.60;;;19.70;99.90;;;;;;5094358;28;20051;-84
2022/06/25 05:50:58;;;;;;;9.35;5.75;;;19.80;99.90;;;;;;5093945;28;20123;-85
2022/06/25 05:53:27;;;;;;;9.10;5.25;;;19.90;99.90;;;;;;5095639;28;20051;-86
2022/06/25 05:55:53;;;;;;;8.93;5.20;;;20.00;99.90;;;;;;5058613;28;20070;-85
2022/06/25 05:58:38;;;;;;;6.70;4.90;;;20.10;99.90;;;;;;5084751;28;20044;-86
2022/06/25 06:01:04;;;;;;;7.15;5.10;;;20.10;99.90;;;;;;5086227;28;20043;-86
2022/06/25 06:03:34;;;;;;;9.43;5.00;;;20.10;99.90;;;;;;5086710;28;20401;-85
2022/06/25 06:06:00;;;;;;;6.70;4.45;;;20.10;99.90;;;;;;5077166;28;20573;-86
2022/06/25 06:08:26;;;;;;;5.72;4.25;;;20.20;99.90;;;;;;5066476;28;20098;-85
2022/06/25 06:10:52;;;;;;;9.32;4.97;;;20.30;99.90;;;;;;5092450;28;20060;-85
2022/06/25 06:13:20;;;;;;;6.65;4.15;;;21.30;99.90;;;;;;5087027;28;20120;-85
2022/06/25 06:15:47;;;;;;;5.30;3.50;;;20.50;99.90;;;;;;5106137;28;20050;-83
2022/06/25 06:18:15;;;;;;;6.47;3.92;;;20.30;99.90;;;;;;5084208;28;20082;-85
2022/06/25 06:20:41;;;;;;;6.22;4.35;;;20.60;99.90;;;;;;5085909;28;20134;-86
2022/06/25 06:23:07;;;;;;;7.55;3.88;;;20.70;99.90;;;;;;5087049;28;20131;-86
2022/06/25 06:25:33;;;;;;;6.65;3.58;;;20.70;99.90;;;;;;5086317;28;20487;-85
2022/06/25 06:27:59;;;;;;;5.20;3.40;;;20.70;99.90;;;;;;5090119;28;20374;-85
2022/06/25 06:30:24;;;;;;;5.40;2.90;;;20.70;99.90;;;;;;5102558;28;20103;-85
2022/06/25 06:32:53;;;;;;;6.28;3.30;;;20.70;99.90;;;;;;5086749;28;20213;-85
2022/06/25 06:35:20;;;;;;;5.72;2.85;;;20.70;99.90;;;;;;5084156;28;20073;-85
2022/06/25 06:37:46;;;;;;;5.85;3.22;;;20.80;99.90;;;;;;5086414;28;20055;-85
2022/06/25 06:40:19;;;;;;;6.03;2.97;;;20.80;99.90;;;;;;5083843;28;20394;-86
2022/06/25 06:42:47;;;;;;;4.88;3.17;;;20.80;99.90;;;;;;5088654;28;20063;-85
2022/06/25 06:45:14;;;;;;;5.00;2.63;;;20.90;99.90;;;;;;5084121;28;20044;-86
2022/06/25 06:47:40;;;;;;;5.88;2.97;;;20.90;99.90;;;;;;5088112;28;20525;-86
2022/06/25 06:50:06;;;;;;;4.75;2.75;;;20.90;99.90;;;;;;5088682;28;20048;-85
2022/06/25 06:52:33;;;;;;;5.28;2.53;;;20.50;99.90;;;;;;5092481;28;20419;-86
2022/06/25 06:55:01;;;;;;;3.55;2.45;;;20.90;99.90;;;;;;5089228;28;20414;-85
2022/06/25 06:57:27;;;;;;;5.05;2.95;;;20.90;99.90;;;;;;5092336;28;20050;-85
2022/06/25 06:59:53;;;;;;;5.82;2.67;;;20.90;99.90;;;;;;5067141;28;20400;-85
2022/06/25 07:02:19;;;;;;;5.15;2.60;;;20.90;99.90;;;;;;5094209;28;20059;-85
2022/06/25 07:04:46;;;;;;;6.65;2.60;;;20.90;99.90;;;;;;5120955;28;20077;-85
2022/06/25 07:07:12;;;;;;;4.53;2.28;;;21.00;99.90;;;;;;5091521;28;20048;-86
2022/06/25 07:09:38;;;;;;;4.72;2.28;;;21.10;99.90;;;;;;5085749;28;20458;-85
2022/06/25 07:12:04;;;;;;;3.55;2.60;;;21.20;99.90;;;;;;5068409;28;20051;-85
2022/06/25 07:14:30;;;;;;;5.88;2.60;;;21.30;99.90;;;;;;5075376;28;20050;-85
2022/06/25 07:16:56;;;;;;;4.88;2.75;;;21.50;99.90;;;;;;5086694;28;20069;-86
2022/06/25 07:19:24;;;;;;;3.70;2.30;;;21.70;99.90;;;;;;5091932;28;20059;-86
2022/06/25 07:21:50;;;;;;;6.40;2.80;;;21.80;99.90;;;;;;5091044;28;20071;-86
2022/06/25 07:24:15;;;;;;;5.53;2.60;;;21.90;99.90;;;;;;5081955;28;20071;-85
2022/06/25 07:26:43;;;;;;;4.22;2.60;;;21.90;99.90;;;;;;5087482;28;20055;-85
2022/06/25 07:29:09;;;;;;;3.70;2.35;;;22.00;99.90;;;;;;5075426;28;20075;-86
2022/06/25 07:31:35;;;;;;;3.72;3.10;;;22.10;99.90;;;;;;5083548;28;20079;-86
2022/06/25 07:34:01;;;;;;;5.60;2.75;;;22.20;99.90;;;;;;5082787;28;20420;-86
2022/06/25 07:36:30;;;;;;;5.72;2.90;;;22.90;99.90;;;;;;5082447;28;20123;-86
2022/06/25 07:38:56;;;;;;;5.13;2.72;;;22.50;99.90;;;;;;5091428;28;20043;-85
2022/06/25 07:41:22;;;;;;;5.28;2.58;;;22.50;99.90;;;;;;5086173;28;20044;-85
2022/06/25 07:43:48;;;;;;;4.43;2.67;;;22.50;99.90;;;;;;5082916;28;20047;-86
2022/06/25 07:46:14;;;;;;;4.22;2.60;;;22.50;99.90;;;;;;5087653;28;20063;-85
2022/06/25 07:48:41;;;;;;;6.70;2.92;;;22.60;99.90;;;;;;5103925;28;20044;-86
2022/06/25 07:53:54;;;;;;;4.53;2.70;;;22.80;99.90;;;;;;5105518;27;20080;-85
2022/06/25 07:56:22;;;;;;;16.23;4.00;;;23.00;99.90;;;;;;5105938;27;20043;-86
2022/06/25 07:58:58;;;;;;;;;;;;;;;;;;;;;
2022/06/25 08:01:24;;;;;;;5.38;2.92;;;23.10;99.90;;;;;;5106771;27;20062;-86
2022/06/25 08:03:50;;;;;;;7.30;3.00;;;23.20;99.90;;;;;;5097564;28;20052;-85
2022/06/25 08:06:16;;;;;;;6.32;3.00;;;23.40;99.90;;;;;;5087346;27;20086;-85
2022/06/25 08:08:45;;;;;;;5.05;3.10;;;23.60;99.90;;;;;;5070784;27;20121;-86
2022/06/25 08:11:11;;;;;;;4.22;2.30;;;23.70;99.90;;;;;;5097005;28;20044;-86
2022/06/25 08:13:37;;;;;;;5.95;3.22;;;23.90;99.90;;;;;;5095548;27;20039;-87
2022/06/25 08:16:09;;;;;;;11.95;3.00;;;23.70;99.90;;;;;;5092409;27;20055;-85
2022/06/25 08:18:36;;;;;;;6.30;2.90;;;23.60;99.90;;;;;;5088492;27;20051;-85
2022/06/25 08:21:02;;;;;;;7.38;2.95;;;23.60;99.90;;;;;;5077061;28;20078;-85
2022/06/25 08:23:28;;;;;;;4.63;2.90;;;23.80;99.90;;;;;;5069498;27;20406;-86
2022/06/25 08:25:54;;;;;;;5.28;3.13;;;23.10;99.90;;;;;;5104842;27;20077;-85
2022/06/25 08:28:20;;;;;;;19.13;4.60;;;23.00;99.90;;;;;;5091429;27;20058;-85
2022/06/25 08:30:46;;;;;;;4.45;3.05;;;22.90;99.90;;;;;;5090672;27;20046;-86
2022/06/25 08:33:14;;;;;;;4.57;2.63;;;23.10;99.90;;;;;;5087117;27;20047;-85
2022/06/25 08:35:40;;;;;;;6.40;2.70;;;23.20;99.90;;;;;;5089176;27;20051;-86
2022/06/25 08:38:06;;;;;;;4.43;3.25;;;23.30;99.90;;;;;;5069672;28;20056;-85
2022/06/25 08:40:32;;;;;;;5.50;2.58;;;23.50;99.90;;;;;;5090559;27;20057;-85
2022/06/25 08:42:59;;;;;;;4.20;2.83;;;23.30;99.90;;;;;;5098336;27;20051;-85
2022/06/25 08:45:25;;;;;;;4.50;2.75;;;23.60;99.90;;;;;;5093767;27;20077;-85
2022/06/25 08:47:52;;;;;;;3.78;2.63;;;23.90;99.90;;;;;;5087689;28;20058;-85
2022/06/25 08:50:21;;;;;;;4.18;3.40;;;24.20;99.90;;;;;;5089669;27;20059;-85
2022/06/25 08:52:54;;;;;;;8.90;3.75;;;24.30;99.90;;;;;;5087245;28;20100;-86
2022/06/25 08:55:34;;;;;;;7.25;3.60;;;24.40;99.90;;;;;;5108511;28;20051;-85
2022/06/25 08:58:01;;;;;;;4.60;3.13;;;24.30;99.90;;;;;;5075925;27;20062;-86
2022/06/25 09:00:29;;;;;;;4.95;3.10;;;24.20;99.90;;;;;;5096858;27;20048;-86
2022/06/25 09:02:58;;;;;;;7.10;3.15;;;24.10;99.90;;;;;;5095051;27;20054;-85
2022/06/25 09:05:31;;;;;;;7.25;3.10;;;24.00;99.90;;;;;;5101185;27;20048;-86
2022/06/25 09:07:59;;;;;;;5.22;3.35;;;24.00;99.90;;;;;;5100375;27;20050;-85
2022/06/25 09:10:26;;;;;;;7.18;3.50;;;23.70;99.90;;;;;;5093246;27;20109;-86
2022/06/25 09:12:55;;;;;;;6.50;3.72;;;23.50;99.90;;;;;;5094977;27;20079;-85
2022/06/25 09:15:23;;;;;;;4.68;3.38;;;23.00;99.90;;;;;;5093066;27;20250;-85
2022/06/25 09:17:50;;;;;;;5.03;3.42;;;23.10;99.90;;;;;;5110843;27;20093;-85
2022/06/25 09:20:20;;;;;;;5.00;3.33;;;22.90;99.90;;;;;;5109136;27;20157;-86
2022/06/25 09:22:58;;;;;;;5.63;3.13;;;22.80;99.90;;;;;;5099541;27;20048;-85
2022/06/25 09:25:30;;;;;;;4.75;1.75;;;22.70;99.90;;;;;;5092854;27;20062;-86
2022/06/25 09:27:59;;;;;;;9.90;2.28;;;22.60;99.90;;;;;;5094177;27;20131;-86
2022/06/25 09:30:27;;;;;;;10.15;2.42;;;22.20;99.90;;;;;;5091731;27;20581;-86
2022/06/25 09:33:00;;;;;;;7.43;1.92;;;21.90;99.90;;;;;;5109613;27;20051;-86
2022/06/25 09:35:33;;;;;;;20.55;2.83;;;21.40;99.90;;;;;;5091038;27;20040;-85
2022/06/25 09:38:07;;;;;;;5.55;1.50;;;21.00;99.90;;;;;;5101586;27;20492;-85
2022/06/25 09:40:37;;;;;;;6.32;1.20;;;20.50;99.90;;;;;;5093774;27;20046;-85
2022/06/25 09:43:22;;;;;;;3.90;1.17;;;20.70;99.90;;;;;;5102099;27;20051;-86
2022/06/25 09:45:51;;;;;;;22.60;2.87;;;20.50;99.90;;;;;;5095853;27;20038;-86
2022/06/25 09:48:22;;;;;;;24.20;3.67;;;20.30;99.90;;;;;;5108657;27;20476;-86
2022/06/25 09:51:12;;;;;;;6.68;1.60;;;20.10;99.90;;;;;;5094716;27;20039;-86
2022/06/25 09:53:51;;;;;;;6.50;2.17;;;19.90;99.90;;;;;;5094661;27;20397;-86
2022/06/25 09:56:23;;;;;;;6.28;1.42;;;19.80;99.90;;;;;;5094307;27;20411;-86
2022/06/25 09:58:55;;;;;;;17.92;2.67;;;19.70;99.90;;;;;;5120001;27;20055;-85
2022/06/25 10:01:24;;;;;;;5.47;1.33;;;19.90;99.90;;;;;;5091590;27;20047;-85
2022/06/25 10:03:53;;;;;;;5.70;2.05;;;19.40;99.90;;;;;;5097219;27;20118;-84
2022/06/25 10:06:26;;;;;;;4.10;1.42;;;19.30;99.90;;;;;;5094149;27;20053;-85
2022/06/25 10:08:56;;;;;;;6.45;1.55;;;19.20;99.90;;;;;;5108121;27;20043;-85
2022/06/25 10:11:24;;;;;;;4.82;1.40;;;19.00;99.90;;;;;;5089401;27;20059;-85
2022/06/25 10:13:58;;;;;;;8.32;1.80;;;18.90;99.90;;;;;;5091904;27;20476;-85
2022/06/25 10:16:29;;;;;;;7.70;1.65;;;18.70;99.90;;;;;;5105018;27;20365;-84
2022/06/25 10:18:55;;;;;;;5.10;1.60;;;18.70;99.90;;;;;;5089686;27;20059;-85
2022/06/25 10:21:23;;;;;;;5.13;1.67;;;18.70;99.90;;;;;;5080613;27;20515;-86
2022/06/25 10:23:55;;;;;;;5.82;2.17;;;18.70;99.90;;;;;;5112294;27;20050;-86
2022/06/25 10:26:22;;;;;;;7.88;2.20;;;18.80;99.90;;;;;;5115826;27;20070;-85
2022/06/25 10:28:51;;;;;;;6.47;2.20;;;18.70;99.90;;;;;;5091178;27;20069;-85
2022/06/25 10:31:19;;;;;;;7.30;2.05;;;18.80;99.90;;;;;;5098050;27;20043;-85
2022/06/25 10:33:59;;;;;;;9.38;2.67;;;18.80;99.90;;;;;;5099772;27;20050;-85
2022/06/25 10:36:58;;;;;;;7.20;1.88;;;18.80;99.90;;;;;;5107097;27;20495;-85
2022/06/25 10:39:42;;;;;;;4.40;2.03;;;18.80;99.90;;;;;;5091734;27;20079;-84
2022/06/25 10:45:11;;;;;;;4.93;1.83;;;18.90;99.90;;;;;;5105046;27;20049;-86
2022/06/25 10:47:38;;;;;;;4.55;1.90;;;18.60;99.90;;;;;;5087138;27;20089;-85
2022/06/25 10:50:31;;;;;;;7.15;2.00;;;19.00;99.90;;;;;;5087077;27;20116;-85
2022/06/25 10:53:03;;;;;;;4.80;1.83;;;19.10;99.90;;;;;;5093608;27;20158;-85
2022/06/25 10:55:48;;;;;;;4.68;1.70;;;18.70;99.90;;;;;;5087388;27;20052;-86
2022/06/25 10:58:23;;;;;;;7.10;2.35;;;18.90;99.90;;;;;;5095381;27;20083;-84
2022/06/25 11:00:51;;;;;;;7.90;2.42;;;19.50;99.90;;;;;;5105415;27;20047;-85
2022/06/25 11:03:37;;;;;;;6.00;1.80;;;19.20;99.90;;;;;;5088456;27;20050;-85
2022/06/25 11:06:26;;;;;;;7.68;1.98;;;19.20;99.90;;;;;;5095827;27;20054;-85
2022/06/25 11:08:53;;;;;;;16.33;3.40;;;19.30;99.90;;;;;;5088002;27;20055;-85
2022/06/25 11:11:27;;;;;;;9.07;2.97;;;18.70;99.90;;;;;;5105943;27;20086;-85
2022/06/25 11:13:53;;;;;;;6.32;2.10;;;19.30;99.90;;;;;;5095480;27;20075;-85
2022/06/25 11:16:20;;;;;;;20.73;3.45;;;19.10;99.90;;;;;;5094000;27;20044;-85
2022/06/25 11:19:04;;;;;;;9.85;2.25;;;18.80;99.90;;;;;;5077933;27;20047;-86
2022/06/25 11:21:43;;;;;;;6.43;2.03;;;19.60;99.90;;;;;;5103189;27;20054;-84
2022/06/25 11:24:18;;;;;;;7.60;2.00;;;19.70;99.90;;;;;;5090694;27;20047;-84
2022/06/25 11:29:47;;;;;;;5.47;1.63;;;20.00;99.90;;;;;;5102384;27;20050;-85
2022/06/25 11:32:30;;;;;;;20.02;4.10;;;20.20;99.90;;;;;;5085862;27;20047;-84
2022/06/25 11:35:02;;;;;;;7.32;1.92;;;20.30;99.90;;;;;;5094564;27;20125;-85
2022/06/25 11:37:34;;;;;;;5.65;1.70;;;20.40;99.90;;;;;;5085426;27;20045;-85
2022/06/25 11:40:03;;;;;;;10.07;2.55;;;20.70;99.90;;;;;;5106074;27;20047;-85
2022/06/25 11:42:32;;;;;;;5.10;1.48;;;20.80;99.90;;;;;;5087958;27;20046;-85
2022/06/25 11:44:59;;;;;;;19.48;3.70;;;20.90;99.90;;;;;;5086032;27;20043;-85
2022/06/25 11:47:29;;;;;;;6.10;1.73;;;20.90;99.90;;;;;;5104717;27;20053;-85
2022/06/25 11:49:55;;;;;;;6.10;2.08;;;20.80;99.90;;;;;;5109388;27;20139;-85
2022/06/25 11:52:24;;;;;;;5.35;1.60;;;20.00;99.90;;;;;;5095950;27;20464;-85
2022/06/25 11:54:55;;;;;;;6.60;1.80;;;20.70;99.90;;;;;;5095383;27;20559;-86
2022/06/25 11:57:27;;;;;;;6.35;1.65;;;20.70;99.90;;;;;;5087002;27;20057;-84
2022/06/25 11:59:55;;;;;;;4.90;1.55;;;21.00;99.90;;;;;;5104057;27;20047;-86
2022/06/25 12:02:21;;;;;;;5.07;1.45;;;21.00;99.90;;;;;;5102295;27;20471;-86
2022/06/25 12:04:56;;;;;;;6.85;1.98;;;21.00;99.90;;;;;;5102353;28;20047;-86
2022/06/25 12:07:33;;;;;;;6.95;1.75;;;21.10;99.90;;;;;;5094551;27;20057;-85
2022/06/25 12:10:12;;;;;;;8.07;2.13;;;21.20;99.90;;;;;;5094141;27;20043;-87
2022/06/25 12:12:40;;;;;;;7.18;1.90;;;21.60;99.90;;;;;;5086313;27;20051;-87
2022/06/25 12:15:15;;;;;;;6.82;2.20;;;22.10;99.90;;;;;;5087700;27;20557;-87
2022/06/25 12:17:43;;;;;;;6.70;1.50;;;22.50;99.90;;;;;;5094055;27;20472;-88
2022/06/25 12:20:17;;;;;;;6.47;1.70;;;22.60;99.90;;;;;;5094958;27;20104;-87
2022/06/25 12:22:50;;;;;;;5.18;1.80;;;22.80;99.90;;;;;;5085406;28;20062;-87
2022/06/25 12:25:34;;;;;;;7.43;2.05;;;23.10;99.90;;;;;;5102469;27;20054;-87
2022/06/25 12:28:05;;;;;;;6.07;2.10;;;23.20;99.90;;;;;;5086023;27;20051;-85
2022/06/25 12:30:37;;;;;;;6.55;1.95;;;23.50;99.90;;;;;;5071365;27;20056;-87
2022/06/25 12:33:21;;;;;;;5.97;2.17;;;23.70;99.90;;;;;;5088678;27;20491;-85
2022/06/25 12:35:49;;;;;;;20.75;3.45;;;23.50;99.90;;;;;;5101007;27;20035;-86
2022/06/25 12:38:15;;;;;;;10.70;1.92;;;23.20;99.90;;;;;;5083215;27;20043;-86
2022/06/25 12:40:51;;;;;;;11.95;2.63;;;23.00;99.90;;;;;;5090652;28;20058;-86
2022/06/25 12:43:18;;;;;;;6.63;1.85;;;22.90;99.90;;;;;;5103223;27;20058;-86
2022/06/25 12:45:50;;;;;;;13.82;2.63;;;23.00;99.90;;;;;;5096059;27;20043;-86
2022/06/25 12:48:30;;;;;;;6.53;1.92;;;23.10;99.90;;;;;;5085450;28;20138;-87
2022/06/25 12:51:10;;;;;;;8.00;2.00;;;23.20;99.90;;;;;;5089524;27;20104;-87
2022/06/25 12:53:49;;;;;;;9.55;2.55;;;23.00;99.90;;;;;;5106136;28;20059;-85
2022/06/25 12:56:21;;;;;;;7.80;1.90;;;22.90;99.90;;;;;;5097309;28;20102;-87
2022/06/25 12:58:48;;;;;;;5.93;1.95;;;22.90;99.90;;;;;;5099966;28;20039;-87
2022/06/25 13:01:26;;;;;;;4.75;1.50;;;22.90;99.90;;;;;;5100844;28;20047;-87
2022/06/25 13:03:52;;;;;;;5.68;1.33;;;22.90;99.90;;;;;;5100596;28;20404;-87
2022/06/25 13:06:19;;;;;;;5.55;1.77;;;22.80;99.90;;;;;;5106824;28;20055;-86
2022/06/25 13:08:54;;;;;;;15.43;3.20;;;22.90;99.90;;;;;;5092247;28;20054;-87